PHNG

Details ICAO PHNG (NGF)
Name KANEOHE BAY MCAF
Region USA (Hawaii)
Timezone Pacific/Honolulu (UTC-10.0)
Plans Departing 17
Arriving 26
Stats Elevation 22 ft / 7 m (AMSL)
Location 21.450444° -157.767919°
Runways 1
Magnetic Variation 9.489° E
Sunrise 2018-05-22 15:51:37 UTC / 2018-05-22 05:51:37 Local
Sunset 2018-05-23 05:06:47 UTC / 2018-05-22 19:06:47 Local
Advertisement - Login to hide

Runways

ID Width Length Bearing (true) Bearing (mag) Surface Threshold Offset Overrun Length
04 200 ft / 61 m 7,784 ft / 2,373 m 51.51° 42.02° Asphalt 0 ft / 0 m 0 ft / 0 m
22 200 ft / 61 m 7,784 ft / 2,373 m 231.51° 222.02° Asphalt 0 ft / 0 m 0 ft / 0 m

Map

Weather


0- 5 10 15 20 25 30 35+ Temperature / ° C

Clouds and Precipitation
Forecast for 2018-05-22 18:00 UTC. Updated 5 hours ago

Ground ~20,000 ft ~40,000 ft Winds

METAR

PHNG 222157Z 04014G18KT 10SM CLR 27/21 A3006 RMK AO2 SLP173 T02720211 $

TAF

TAF TAF PHNG 2221/2321 05012KT 9999 SCT025 QNH2998INS 2222/2303 05012G18KT BECMG 2307/2309 05010KT 9999 SCT020 BKN030 QNH3005INS FM230900 05010KT 9999 BKN020 BKN030 QNH2998INS TEMPO 2312/2317 9000 -SHRA SCT020 BKN030 T28/2223Z T24/2309Z

Frequencies

Unicom 120.70 MHz CTAF
Approach 125.00 MHz APP/DEP
Tower 120.70 MHz TWR
Warning: Do not use this data for real-world aviation or navigation. No guarantee of current accuracy is given.